createdAt,value
2023-05-16T00:01:02.475Z,12.75
2023-05-16T00:03:31.649Z,9.50
2023-05-16T00:05:59.420Z,11.05
2023-05-16T00:08:26.765Z,10.57
2023-05-16T00:10:53.370Z,12.20
2023-05-16T00:13:25.034Z,9.52
2023-05-16T00:15:57.774Z,9.98
2023-05-16T00:18:26.258Z,10.27
2023-05-16T00:20:55.131Z,9.43
2023-05-16T00:23:22.085Z,10.10
2023-05-16T00:25:49.095Z,11.63
2023-05-16T00:28:15.792Z,9.63
2023-05-16T00:30:42.578Z,9.70
2023-05-16T00:33:09.253Z,10.07
2023-05-16T00:35:37.798Z,10.77
2023-05-16T00:38:04.492Z,9.77
2023-05-16T00:40:31.383Z,10.47
2023-05-16T00:42:58.428Z,10.70
2023-05-16T00:45:25.099Z,10.03
2023-05-16T00:47:51.985Z,11.17
2023-05-16T00:50:19.252Z,10.60
2023-05-16T00:52:45.976Z,12.47
2023-05-16T00:55:13.338Z,9.57
2023-05-16T00:57:40.498Z,12.20
2023-05-16T01:00:10.858Z,9.87
2023-05-16T01:02:43.823Z,13.10
2023-05-16T01:05:10.525Z,10.93
2023-05-16T01:07:37.231Z,10.80
2023-05-16T01:10:05.212Z,9.87
2023-05-16T01:12:38.456Z,10.73
2023-05-16T01:15:12.898Z,10.50
2023-05-16T01:18:06.959Z,10.77
2023-05-16T01:20:39.050Z,11.43
2023-05-16T01:23:18.350Z,11.05
2023-05-16T01:25:45.435Z,10.57
2023-05-16T01:28:14.258Z,10.83
2023-05-16T01:30:41.677Z,12.63
2023-05-16T01:33:09.121Z,11.90
2023-05-16T01:35:58.832Z,10.00
2023-05-16T01:38:27.395Z,12.10
2023-05-16T01:41:10.515Z,10.30
2023-05-16T01:43:45.415Z,9.30
2023-05-16T01:46:16.661Z,12.57
2023-05-16T01:48:53.339Z,11.77
2023-05-16T01:51:25.176Z,12.20
2023-05-16T01:53:52.535Z,10.67
2023-05-16T01:56:20.002Z,11.00
2023-05-16T01:58:47.927Z,10.73
2023-05-16T02:01:14.632Z,10.73
2023-05-16T02:03:41.507Z,12.47
2023-05-16T02:06:08.264Z,12.47
2023-05-16T02:08:35.090Z,12.90
2023-05-16T02:11:01.713Z,12.80
2023-05-16T02:13:28.341Z,12.33
2023-05-16T02:15:54.968Z,13.33
2023-05-16T02:18:23.584Z,14.63
2023-05-16T02:20:51.034Z,16.80
2023-05-16T02:23:17.626Z,15.17
2023-05-16T02:25:44.518Z,14.47
2023-05-16T02:28:11.258Z,12.60
2023-05-16T02:30:37.900Z,10.37
2023-05-16T02:33:04.713Z,10.30
2023-05-16T02:35:31.519Z,10.47
2023-05-16T02:37:58.148Z,10.40
2023-05-16T02:40:24.757Z,10.63
2023-05-16T02:42:51.405Z,10.87
2023-05-16T02:45:17.991Z,12.53
2023-05-16T02:47:44.665Z,12.40
2023-05-16T02:50:11.464Z,12.57
2023-05-16T02:52:38.104Z,12.13
2023-05-16T02:55:21.171Z,12.07
2023-05-16T02:57:48.843Z,12.85
2023-05-16T03:00:18.340Z,13.57
2023-05-16T03:02:45.641Z,15.30
2023-05-16T03:05:12.511Z,14.33
2023-05-16T03:07:39.253Z,15.53
2023-05-16T03:10:06.993Z,16.27
2023-05-16T03:12:33.673Z,15.73
2023-05-16T03:15:00.298Z,17.60
2023-05-16T03:17:26.962Z,15.67
2023-05-16T03:19:54.272Z,15.90
2023-05-16T03:22:20.888Z,17.80
2023-05-16T03:24:47.601Z,17.47
2023-05-16T03:27:14.285Z,17.63
2023-05-16T03:29:41.032Z,18.10
2023-05-16T03:32:07.804Z,16.88
2023-05-16T03:34:34.498Z,19.67
2023-05-16T03:37:01.276Z,20.10
2023-05-16T03:39:27.919Z,16.23
2023-05-16T03:41:57.293Z,16.08
2023-05-16T03:44:24.247Z,14.53
2023-05-16T03:46:51.511Z,16.52
2023-05-16T03:49:18.476Z,19.17
2023-05-16T03:51:45.328Z,18.40
2023-05-16T03:54:11.939Z,24.38
2023-05-16T03:56:38.792Z,19.92
2023-05-16T03:59:05.539Z,19.13
2023-05-16T04:01:32.282Z,19.85
2023-05-16T04:03:58.979Z,19.80
2023-05-16T04:06:25.852Z,24.40
2023-05-16T04:08:52.482Z,20.45
2023-05-16T04:11:19.118Z,23.30
2023-05-16T04:13:45.895Z,25.38
2023-05-16T04:16:13.219Z,25.02
2023-05-16T04:18:39.951Z,23.17
2023-05-16T04:21:07.634Z,23.17
2023-05-16T04:23:34.294Z,30.00
2023-05-16T04:26:01.936Z,23.70
2023-05-16T04:28:28.547Z,25.05
2023-05-16T04:30:55.162Z,24.95
2023-05-16T04:33:21.805Z,25.20
2023-05-16T04:35:48.685Z,25.17
2023-05-16T04:38:15.668Z,25.08
2023-05-16T04:40:42.343Z,24.38
2023-05-16T04:43:09.054Z,21.73
2023-05-16T04:45:37.579Z,25.42
2023-05-16T04:48:05.083Z,23.73
2023-05-16T04:50:31.865Z,18.92
2023-05-16T04:52:58.636Z,22.60
2023-05-16T04:55:27.117Z,20.23
2023-05-16T04:57:54.514Z,25.58
2023-05-16T05:00:21.721Z,26.40
2023-05-16T05:02:48.486Z,23.23
2023-05-16T05:05:16.349Z,17.90
2023-05-16T05:07:43.690Z,19.92
2023-05-16T05:10:10.936Z,22.15
2023-05-16T05:12:37.786Z,15.48
2023-05-16T05:15:05.493Z,17.40
2023-05-16T05:17:34.539Z,16.17
2023-05-16T05:20:03.401Z,14.88
2023-05-16T05:22:30.842Z,15.15
2023-05-16T05:24:57.439Z,15.90
2023-05-16T05:27:25.404Z,14.75
2023-05-16T05:29:52.238Z,17.35
2023-05-16T05:32:18.934Z,16.20
2023-05-16T05:34:45.622Z,15.48
2023-05-16T05:37:12.271Z,15.93
2023-05-16T05:39:38.866Z,17.35
2023-05-16T05:42:05.783Z,15.45
2023-05-16T05:44:33.466Z,20.23
2023-05-16T05:47:00.061Z,18.25
2023-05-16T05:49:27.100Z,18.70
2023-05-16T05:51:53.990Z,19.92
2023-05-16T05:54:20.946Z,19.08
2023-05-16T05:56:47.564Z,18.17
2023-05-16T05:59:14.187Z,18.95
2023-05-16T06:01:41.103Z,17.77
2023-05-16T06:04:07.796Z,16.67
2023-05-16T06:06:34.480Z,16.27
2023-05-16T06:09:01.279Z,16.98
2023-05-16T06:11:27.903Z,15.50
2023-05-16T06:13:54.573Z,15.88
2023-05-16T06:16:25.383Z,16.20
2023-05-16T06:18:52.105Z,16.13
2023-05-16T06:21:18.846Z,15.90
2023-05-16T06:23:45.580Z,16.85
2023-05-16T06:26:12.191Z,15.80
2023-05-16T06:28:39.087Z,17.20
2023-05-16T06:31:05.931Z,17.50
2023-05-16T06:33:32.657Z,15.93
2023-05-16T06:36:00.286Z,15.65
2023-05-16T06:38:27.392Z,16.08
2023-05-16T06:40:54.027Z,14.77
2023-05-16T06:43:20.691Z,15.50
2023-05-16T06:45:47.389Z,19.08
2023-05-16T06:48:17.516Z,15.13
2023-05-16T06:50:48.428Z,16.05
2023-05-16T06:53:15.124Z,17.13
2023-05-16T06:55:41.826Z,16.70
2023-05-16T06:58:09.161Z,16.85
2023-05-16T07:00:36.063Z,14.95
2023-05-16T07:03:03.906Z,17.52
2023-05-16T07:05:31.533Z,13.90
2023-05-16T07:07:58.278Z,15.90
2023-05-16T07:10:24.983Z,16.70
2023-05-16T07:12:51.665Z,17.13
2023-05-16T07:15:18.349Z,18.42
2023-05-16T07:17:45.251Z,14.15
2023-05-16T07:20:14.500Z,12.13
2023-05-16T07:22:41.211Z,12.85
2023-05-16T07:25:12.666Z,12.95
2023-05-16T07:27:41.544Z,11.88
2023-05-16T07:30:09.902Z,13.57
2023-05-16T07:32:38.136Z,11.52
2023-05-16T07:35:05.151Z,12.90
2023-05-16T07:37:31.857Z,15.35
2023-05-16T07:39:59.857Z,11.60
2023-05-16T07:42:26.552Z,12.55
2023-05-16T07:44:53.314Z,10.35
2023-05-16T07:47:19.991Z,10.93
2023-05-16T07:49:46.638Z,11.18
2023-05-16T07:52:13.301Z,10.07
2023-05-16T07:54:41.057Z,10.45
2023-05-16T07:57:07.769Z,20.88
2023-05-16T07:59:34.764Z,12.75
2023-05-16T08:02:01.435Z,9.18
2023-05-16T08:04:28.657Z,9.25
2023-05-16T08:06:55.343Z,8.25
2023-05-16T08:09:34.984Z,9.10
2023-05-16T08:12:11.192Z,11.90
2023-05-16T08:15:00.642Z,7.75
2023-05-16T08:20:24.323Z,10.73
2023-05-16T08:22:53.317Z,10.18
2023-05-16T08:26:05.129Z,9.80
2023-05-16T08:46:53.131Z,8.65
2023-05-16T08:57:10.640Z,6.68
2023-05-16T09:00:18.509Z,6.90
2023-05-16T09:02:59.623Z,7.90
2023-05-16T09:13:32.939Z,9.50
2023-05-16T09:16:30.260Z,15.20
2023-05-16T09:19:06.645Z,6.88
2023-05-16T09:21:45.080Z,10.77
2023-05-16T09:24:11.772Z,9.07
2023-05-16T09:26:39.641Z,5.88
2023-05-16T09:29:11.817Z,10.88
2023-05-16T09:31:38.768Z,7.57
2023-05-16T09:34:11.238Z,7.53
2023-05-16T09:36:37.942Z,6.72
2023-05-16T09:39:06.715Z,4.30
2023-05-16T09:41:35.075Z,5.68
2023-05-16T09:44:06.464Z,6.93
2023-05-16T09:46:35.004Z,4.88
2023-05-16T09:49:01.743Z,6.78
2023-05-16T09:51:28.731Z,5.93
2023-05-16T09:53:55.511Z,7.28
2023-05-16T09:56:22.407Z,7.65
2023-05-16T09:58:52.112Z,7.35
2023-05-16T10:01:21.527Z,9.18
2023-05-16T10:03:48.446Z,5.97
2023-05-16T10:06:16.670Z,7.60
2023-05-16T10:08:43.706Z,4.05
2023-05-16T10:11:11.254Z,8.73
2023-05-16T10:13:38.242Z,13.60
2023-05-16T10:16:11.336Z,8.52
2023-05-16T10:18:39.051Z,10.77
2023-05-16T10:21:10.362Z,15.05
2023-05-16T10:23:39.331Z,9.75
2023-05-16T10:26:06.470Z,7.95
2023-05-16T10:28:33.364Z,5.43
2023-05-16T10:31:01.783Z,7.68
2023-05-16T10:33:28.677Z,8.52
2023-05-16T10:35:55.703Z,8.52
2023-05-16T10:38:24.418Z,6.15
2023-05-16T10:40:51.527Z,7.00
2023-05-16T10:43:26.630Z,7.90
2023-05-16T10:46:09.795Z,6.60
2023-05-16T10:48:41.177Z,6.40
2023-05-16T10:51:38.163Z,5.82
2023-05-16T10:54:10.307Z,5.13
2023-05-16T10:56:37.119Z,5.40
2023-05-16T10:59:04.994Z,7.22
2023-05-16T11:01:35.197Z,7.05
2023-05-16T11:04:07.527Z,5.45
2023-05-16T11:06:36.198Z,4.88
2023-05-16T11:09:12.031Z,6.78
2023-05-16T11:11:49.412Z,8.52
2023-05-16T11:14:37.492Z,56.92
2023-05-16T11:17:10.391Z,43.65
2023-05-16T11:19:59.315Z,8.95
2023-05-16T11:22:28.743Z,7.50
2023-05-16T11:25:15.721Z,9.02
2023-05-16T11:27:46.869Z,4.65
2023-05-16T11:30:19.300Z,5.18
2023-05-16T11:32:47.429Z,7.00
2023-05-16T11:35:15.860Z,6.30
2023-05-16T11:37:43.159Z,7.03
2023-05-16T11:40:12.166Z,7.05
2023-05-16T11:42:44.246Z,8.20
2023-05-16T11:45:25.611Z,8.70
2023-05-16T11:47:52.586Z,9.98
2023-05-16T11:50:22.226Z,6.55
2023-05-16T11:52:58.229Z,6.75
2023-05-16T11:57:59.992Z,8.00
2023-05-16T12:00:27.214Z,7.93
2023-05-16T12:02:55.425Z,5.90
2023-05-16T12:05:28.380Z,8.85
2023-05-16T12:07:55.191Z,7.68
2023-05-16T12:10:21.937Z,5.72
2023-05-16T12:12:52.583Z,5.10
2023-05-16T12:15:19.499Z,8.93
2023-05-16T12:17:47.660Z,7.68
2023-05-16T12:20:16.694Z,6.43
2023-05-16T12:22:45.875Z,5.47
2023-05-16T12:25:21.549Z,7.70
2023-05-16T12:27:48.244Z,6.63
2023-05-16T12:30:17.698Z,4.22
2023-05-16T12:32:44.882Z,4.43
2023-05-16T12:35:15.101Z,8.02
2023-05-16T12:37:43.909Z,15.45
2023-05-16T12:40:12.607Z,7.10
2023-05-16T12:42:39.262Z,5.97
2023-05-16T12:45:06.189Z,5.28
2023-05-16T12:47:37.487Z,5.00
2023-05-16T12:50:10.372Z,4.47
2023-05-16T12:52:36.998Z,6.47
2023-05-16T12:55:03.986Z,5.43
2023-05-16T12:57:31.029Z,7.85
2023-05-16T12:59:58.507Z,5.82
2023-05-16T13:02:25.474Z,5.80
2023-05-16T13:04:52.250Z,5.97
2023-05-16T13:07:18.921Z,4.35
2023-05-16T13:09:45.604Z,5.88
2023-05-16T13:12:14.119Z,2.75
2023-05-16T13:14:43.063Z,4.07
2023-05-16T13:17:11.941Z,4.68
2023-05-16T13:19:38.652Z,8.52
2023-05-16T13:22:05.364Z,4.05
2023-05-16T13:24:31.981Z,4.38
2023-05-16T13:26:59.611Z,5.63
2023-05-16T13:29:26.477Z,6.03
2023-05-16T13:31:53.239Z,6.85
2023-05-16T13:34:19.939Z,3.17
2023-05-16T13:36:53.885Z,3.63
2023-05-16T13:39:22.244Z,9.27
2023-05-16T13:41:49.242Z,5.90
2023-05-16T13:44:16.630Z,5.80
2023-05-16T13:46:43.473Z,3.00
2023-05-16T13:49:10.171Z,5.95
2023-05-16T13:51:36.894Z,4.35
2023-05-16T13:54:03.834Z,5.88
2023-05-16T13:56:30.586Z,8.95
2023-05-16T13:59:03.654Z,4.30
2023-05-16T14:01:32.998Z,3.83
2023-05-16T14:03:59.754Z,3.95
2023-05-16T14:06:26.560Z,6.85
2023-05-16T14:08:54.541Z,5.43
2023-05-16T14:11:28.505Z,5.85
2023-05-16T14:13:56.638Z,3.63
2023-05-16T14:16:23.380Z,5.68
2023-05-16T14:18:50.152Z,3.95
2023-05-16T14:21:16.835Z,3.78
2023-05-16T14:23:43.569Z,6.75
2023-05-16T14:26:10.236Z,4.10
2023-05-16T14:28:36.872Z,7.07
2023-05-16T14:31:03.595Z,8.23
2023-05-16T14:33:31.087Z,5.65
2023-05-16T14:35:57.797Z,4.03
2023-05-16T14:38:24.467Z,4.65
2023-05-16T14:40:51.114Z,4.82
2023-05-16T14:43:17.904Z,3.20
2023-05-16T14:45:44.603Z,4.07
2023-05-16T14:48:11.313Z,5.28
2023-05-16T14:50:37.987Z,4.18
2023-05-16T14:53:04.704Z,6.43
2023-05-16T14:55:31.392Z,3.30
2023-05-16T14:57:59.975Z,3.35
2023-05-16T15:00:30.421Z,4.90
2023-05-16T15:02:57.547Z,3.53
2023-05-16T15:05:25.704Z,3.72
2023-05-16T15:07:52.394Z,4.25
2023-05-16T15:10:19.649Z,5.72
2023-05-16T15:12:46.392Z,3.90
2023-05-16T15:15:14.940Z,4.10
2023-05-16T15:17:43.176Z,3.40
2023-05-16T15:20:11.030Z,5.97
2023-05-16T15:22:39.158Z,3.65
2023-05-16T15:25:06.419Z,4.93
2023-05-16T15:27:33.092Z,3.13
2023-05-16T15:30:00.706Z,9.30
2023-05-16T15:32:27.436Z,4.10
2023-05-16T15:34:54.310Z,3.58
2023-05-16T15:37:21.284Z,3.78
2023-05-16T15:39:48.223Z,3.05
2023-05-16T15:42:15.004Z,2.42
2023-05-16T15:44:41.944Z,7.07
2023-05-16T15:47:09.277Z,3.70
2023-05-16T15:49:36.412Z,2.03
2023-05-16T15:52:03.878Z,2.33
2023-05-16T15:54:30.720Z,2.35
2023-05-16T15:56:57.708Z,1.58
2023-05-16T15:59:24.538Z,3.22
2023-05-16T16:01:51.220Z,2.08
2023-05-16T16:04:20.413Z,4.00
2023-05-16T16:06:48.571Z,3.45
2023-05-16T16:09:15.821Z,3.22
2023-05-16T16:11:42.843Z,3.33
2023-05-16T16:14:11.046Z,3.72
2023-05-16T16:16:39.673Z,7.10
2023-05-16T16:19:07.314Z,3.35
2023-05-16T16:21:34.454Z,6.10
2023-05-16T16:24:01.354Z,3.65
2023-05-16T16:26:28.046Z,3.72
2023-05-16T16:28:54.715Z,2.13
2023-05-16T16:31:21.396Z,2.85
2023-05-16T16:33:49.275Z,2.55
2023-05-16T16:36:16.924Z,4.63
2023-05-16T16:38:43.864Z,2.97
2023-05-16T16:41:10.606Z,4.70
2023-05-16T16:43:40.067Z,2.47
2023-05-16T16:46:07.616Z,2.70
2023-05-16T16:48:34.643Z,2.78
2023-05-16T16:51:02.223Z,4.95
2023-05-16T16:53:29.073Z,3.00
2023-05-16T16:55:55.776Z,5.47
2023-05-16T16:58:24.673Z,2.70
2023-05-16T17:00:51.820Z,4.63
2023-05-16T17:03:18.961Z,4.22
2023-05-16T17:05:46.173Z,4.90
2023-05-16T17:08:20.348Z,5.95
2023-05-16T17:10:52.350Z,4.35
2023-05-16T17:13:34.869Z,4.68
2023-05-16T17:16:31.020Z,3.20
2023-05-16T17:18:57.864Z,5.80
2023-05-16T17:21:24.657Z,5.43
2023-05-16T17:23:51.487Z,4.68
2023-05-16T17:26:18.204Z,2.55
2023-05-16T17:28:46.337Z,3.85
2023-05-16T17:31:13.150Z,6.30
2023-05-16T17:33:40.012Z,4.38
2023-05-16T17:36:07.371Z,5.82
2023-05-16T17:38:34.494Z,5.30
2023-05-16T17:41:01.799Z,4.05
2023-05-16T17:43:29.948Z,3.42
2023-05-16T17:45:56.982Z,4.45
2023-05-16T17:48:23.799Z,4.00
2023-05-16T17:50:51.192Z,2.63
2023-05-16T17:53:17.921Z,1.88
2023-05-16T17:55:44.676Z,5.43
2023-05-16T17:58:11.403Z,2.80
2023-05-16T18:00:38.419Z,3.30
2023-05-16T18:03:06.361Z,3.15
2023-05-16T18:05:33.205Z,2.33
2023-05-16T18:07:59.933Z,4.05
2023-05-16T18:10:31.522Z,4.43
2023-05-16T18:13:03.804Z,2.40
2023-05-16T18:15:30.489Z,2.78
2023-05-16T18:17:57.231Z,3.22
2023-05-16T18:20:24.083Z,3.88
2023-05-16T18:22:52.015Z,3.53
2023-05-16T18:25:22.085Z,2.97
2023-05-16T18:27:48.837Z,4.07
2023-05-16T18:30:16.387Z,2.55
2023-05-16T18:32:43.296Z,2.08
2023-05-16T18:35:10.393Z,2.00
2023-05-16T18:37:37.238Z,3.28
2023-05-16T18:40:04.846Z,2.17
2023-05-16T18:42:31.626Z,5.22
2023-05-16T18:44:58.321Z,2.67
2023-05-16T18:47:25.107Z,2.47
2023-05-16T18:49:52.658Z,3.90
2023-05-16T18:52:19.386Z,3.92
2023-05-16T18:54:46.120Z,2.45
2023-05-16T18:57:13.196Z,3.50
2023-05-16T18:59:39.887Z,2.30
2023-05-16T19:02:06.617Z,3.05
2023-05-16T19:04:33.409Z,3.85
2023-05-16T19:07:01.755Z,2.03
2023-05-16T19:09:30.699Z,1.60
2023-05-16T19:11:57.403Z,3.47
2023-05-16T19:14:24.078Z,6.00
2023-05-16T19:16:51.109Z,2.15
2023-05-16T19:19:18.016Z,1.83
2023-05-16T19:21:44.885Z,2.85
2023-05-16T19:24:12.038Z,3.78
2023-05-16T19:26:39.972Z,4.63
2023-05-16T19:29:06.691Z,2.25
2023-05-16T19:31:33.406Z,3.47
2023-05-16T19:34:00.164Z,3.92
2023-05-16T19:36:26.874Z,4.40
2023-05-16T19:38:53.627Z,3.53
2023-05-16T19:41:21.467Z,3.75
2023-05-16T19:43:48.281Z,4.57
2023-05-16T19:46:14.973Z,9.95
2023-05-16T19:48:41.776Z,2.55
2023-05-16T19:51:09.174Z,4.95
2023-05-16T19:53:36.075Z,3.00
2023-05-16T19:56:03.248Z,3.25
2023-05-16T19:58:30.087Z,3.90
2023-05-16T20:00:58.476Z,2.13
2023-05-16T20:03:25.430Z,4.25
2023-05-16T20:05:52.226Z,3.25
2023-05-16T20:08:18.858Z,5.40
2023-05-16T20:10:45.782Z,5.18
2023-05-16T20:13:12.644Z,3.70
2023-05-16T20:15:39.364Z,2.47
2023-05-16T20:18:06.429Z,3.05
2023-05-16T20:20:33.118Z,5.40
2023-05-16T20:22:59.783Z,2.78
2023-05-16T20:25:27.105Z,4.03
2023-05-16T20:27:54.074Z,3.78
2023-05-16T20:30:20.967Z,1.63
2023-05-16T20:32:47.685Z,3.42
2023-05-16T20:35:14.966Z,1.48
2023-05-16T20:37:41.852Z,1.90
2023-05-16T20:40:09.109Z,4.55
2023-05-16T20:42:36.265Z,3.58
2023-05-16T20:45:03.168Z,4.55
2023-05-16T20:47:29.882Z,1.85
2023-05-16T20:49:56.586Z,4.20
2023-05-16T20:52:23.924Z,4.57
2023-05-16T20:54:50.656Z,2.50
2023-05-16T20:57:17.806Z,2.67
2023-05-16T20:59:44.543Z,3.03
2023-05-16T21:02:11.319Z,5.47
2023-05-16T21:04:38.712Z,3.45
2023-05-16T21:07:08.133Z,3.63
2023-05-16T21:09:36.937Z,2.13
2023-05-16T21:12:04.308Z,4.07
2023-05-16T21:14:31.079Z,4.33
2023-05-16T21:16:57.784Z,2.83
2023-05-16T21:19:24.563Z,3.93
2023-05-16T21:21:51.402Z,3.17
2023-05-16T21:24:18.119Z,4.80
2023-05-16T21:26:44.787Z,3.43
2023-05-16T21:29:11.428Z,2.00
2023-05-16T21:31:38.111Z,2.37
2023-05-16T21:34:05.026Z,3.37
2023-05-16T21:36:31.799Z,2.07
2023-05-16T21:38:58.480Z,4.07
2023-05-16T21:41:25.211Z,3.60
2023-05-16T21:43:51.857Z,1.93
2023-05-16T21:46:18.527Z,3.00
2023-05-16T21:48:45.304Z,3.07
2023-05-16T21:51:12.047Z,2.90
2023-05-16T21:53:38.761Z,2.07
2023-05-16T21:56:06.010Z,4.37
2023-05-16T21:58:32.715Z,2.10
2023-05-16T22:00:59.393Z,3.40
2023-05-16T22:03:26.139Z,3.87
2023-05-16T22:05:52.891Z,3.97
2023-05-16T22:08:19.683Z,3.83
2023-05-16T22:10:47.865Z,5.53
2023-05-16T22:13:14.545Z,1.97
2023-05-16T22:15:44.468Z,3.33
2023-05-16T22:18:13.470Z,2.40
2023-05-16T22:20:41.241Z,3.13
2023-05-16T22:23:07.968Z,3.43
2023-05-16T22:25:34.684Z,5.17
2023-05-16T22:28:01.380Z,2.03
2023-05-16T22:30:30.214Z,5.67
2023-05-16T22:32:57.241Z,4.30
2023-05-16T22:35:25.299Z,2.40
2023-05-16T22:37:52.043Z,4.43
2023-05-16T22:40:18.677Z,2.13
2023-05-16T22:42:45.405Z,4.57
2023-05-16T22:45:12.041Z,6.37
2023-05-16T22:47:38.764Z,4.73
2023-05-16T22:50:05.656Z,5.97
2023-05-16T22:52:32.404Z,4.90
2023-05-16T22:55:00.617Z,3.87
2023-05-16T22:57:27.382Z,3.53
2023-05-16T22:59:54.037Z,4.40
2023-05-16T23:02:20.772Z,4.30
2023-05-16T23:04:47.690Z,6.43
2023-05-16T23:07:14.360Z,7.43
2023-05-16T23:09:41.064Z,3.53
2023-05-16T23:12:08.457Z,3.47
2023-05-16T23:14:35.126Z,4.37
2023-05-16T23:17:01.812Z,3.40
2023-05-16T23:19:28.749Z,3.70
2023-05-16T23:21:55.546Z,4.40
2023-05-16T23:24:22.800Z,4.53
2023-05-16T23:26:49.480Z,5.90
2023-05-16T23:29:16.218Z,3.07
2023-05-16T23:31:42.853Z,4.47
2023-05-16T23:34:11.676Z,4.90
2023-05-16T23:36:38.322Z,6.23
2023-05-16T23:39:05.045Z,5.60
2023-05-16T23:41:31.675Z,3.90
2023-05-16T23:43:58.335Z,4.10
2023-05-16T23:46:24.988Z,4.63
2023-05-16T23:48:51.826Z,6.43
2023-05-16T23:51:18.565Z,2.90
2023-05-16T23:53:45.643Z,4.17
2023-05-16T23:56:12.951Z,5.00
2023-05-16T23:58:39.593Z,4.43
